Impacts METAR Board
IDs:

KMIA - Miami Intl, FL, US

Updated at: 0400 UTC 10 Dec 2018
Potential Impact None Slight Moderate High
Time 09/16Z 09/17Z 09/18Z 09/19Z 09/20Z 09/21Z 09/22Z 09/23Z 10/00Z 10/01Z 10/02Z 10/03Z 10/04Z
Temp80 82 83 82 82 82 81 79 76 74 73 72 72
Dewpt76 74 73 72 70 70 71 72 72 70 70 70 70
Altim30.02 30.00 29.97 29.95 29.94 29.94 29.94 29.95 29.96 29.98 29.99 29.99 29.99
VIS10 10 10 10 10 10 10 10 10 10 10 10 10
CIG50 30 35 30 250 250 180 24 170 140 140 140 140
CoverBKNOVCOVCOVCOVCBKNBKNOVCOVCOVCOVCOVCBKN
FltCatVFRMVFRVFRMVFRVFRVFRVFRMVFRVFRVFRVFRVFRVFR
WX--------------------------
WDir220210230210220240230240250260260250240
WSpd13 13 14 16 17 11 12 12 11 8 8 8 4
WGst-- 21 -- -- 22 20 19 17 -- -- -- -- --
Raw hourly METARs
KMIA 091553Z 22013KT 10SM SCT019CB SCT030 BKN050 BKN130 OVC250 27/24 A3002 RMK AO2 LTG DSNT S RAB22E42 SLP166 CB NE AND DSNT E-SE AND SW MOV NE P0001 T02670244 $
KMIA 091653Z 21013G21KT 10SM FEW020 BKN030 OVC250 28/23 A3000 RMK AO2 RAB1557E11 SLP157 P0000 T02780233 $
KMIA 091753Z 23014KT 10SM FEW025 BKN035 OVC250 28/23 A2997 RMK AO2 SLP149 60001 T02830228 10283 20228 58021 $
KMIA 091853Z 21016KT 10SM BKN030 BKN060 OVC250 28/22 A2995 RMK AO2 SLP143 T02780222 $
KMIA 091953Z 22017G22KT 10SM SCT030 SCT060 OVC250 28/21 A2994 RMK AO2 SLP139 T02780211 $
KMIA 092053Z 24011G20KT 10SM FEW030 FEW075 SCT130 BKN250 28/21 A2994 RMK AO2 SLP139 T02780211 55010 $
KMIA 092153Z 23012G19KT 10SM SCT030 SCT045 BKN180 BKN250 27/22 A2994 RMK AO2 SLP140 T02720217 $
KMIA 092303Z 24012G17KT 10SM BKN024 BKN170 OVC250 26/22 A2995 RMK AO2 T02610222 $
KMIA 092353Z 25011KT 10SM SCT024 BKN170 OVC210 24/22 A2996 RMK AO2 SLP146 T02440222 10289 20244 53007 $
KMIA 100053Z 26008KT 10SM BKN140 OVC200 23/21 A2998 RMK AO2 SLP151 T02330211 $
KMIA 100153Z 26008KT 10SM FEW030 BKN140 OVC200 23/21 A2999 RMK AO2 SLP154 T02280211 $
KMIA 100253Z 25008KT 10SM FEW020 SCT085 BKN140 OVC200 22/21 A2999 RMK AO2 SLP154 T02220211 51008 $
KMIA 100353Z 24004KT 10SM FEW018 SCT080 BKN140 BKN190 22/21 A2999 RMK AO2 SLP154 T02220211 $



Page loaded:  04:27 UTC  |   08:27 PM Pacific  |   09:27 PM Mountain  |   10:27 PM Central  |   11:27 PM Eastern

 

ADVISORIES

FORECASTS

FORECASTS

OBSERVATIONS

USER TOOLS

ABOUT US